RYR22TW LFOB-LOWW
Flight info
| Callsign | RYR22TW |
|---|---|
| Flight time | 1h 28m |
| Altitude | 37000 |
| Route | BUBLI DCT LUVAL DCT BEGAR DCT TRA DCT GAMSA DCT TULSI DCT INPUL/N0436F330 DCT NEMAL NEMAL2W |
| Aircraft | A320/M-SDE3FGHIRWY/LB1 |
Departure
| Time | 2026-04-21 07:30 |
|---|---|
| Airport | Beauvais-Tillé airport (LFOB) |
Arrival
| Time | 2026-04-21 08:59 |
|---|---|
| Airport | Vienna International Airport (LOWW) |
| Time | Latitude | Longitude | Altitude | Speed | Heading |
|---|---|---|---|---|---|
| 2026-04-21 06:39 | 49.45854 | 2.11375 | 357 ft | 0 kts | 313° |
| 2026-04-21 07:20 | 49.45854 | 2.11376 | 347 ft | 1 kts | 313° |
| 2026-04-21 07:21 | 49.45843 | 2.11393 | 357 ft | 3 kts | 310° |
| 2026-04-21 07:21 | 49.45831 | 2.11415 | 351 ft | 3 kts | 310° |
| 2026-04-21 07:21 | 49.45820 | 2.11439 | 355 ft | 3 kts | 283° |
| 2026-04-21 07:21 | 49.45819 | 2.11467 | 347 ft | 3 kts | 245° |
| 2026-04-21 07:22 | 49.45826 | 2.11483 | 347 ft | 0 kts | 225° |
| 2026-04-21 07:26 | 49.45822 | 2.11478 | 347 ft | 3 kts | 225° |
| 2026-04-21 07:26 | 49.45797 | 2.11439 | 353 ft | 7 kts | 225° |
| 2026-04-21 07:26 | 49.45757 | 2.11380 | 354 ft | 10 kts | 220° |
| 2026-04-21 07:26 | 49.45700 | 2.11299 | 350 ft | 13 kts | 239° |
| 2026-04-21 07:27 | 49.45731 | 2.11170 | 351 ft | 14 kts | 303° |
| 2026-04-21 07:27 | 49.45786 | 2.11043 | 349 ft | 12 kts | 301° |
| 2026-04-21 07:27 | 49.45762 | 2.10965 | 350 ft | 4 kts | 203° |
| 2026-04-21 07:27 | 49.45759 | 2.10963 | 350 ft | 1 kts | 206° |
| 2026-04-21 07:28 | 49.45743 | 2.10951 | 357 ft | 5 kts | 206° |
| 2026-04-21 07:28 | 49.45705 | 2.10922 | 352 ft | 8 kts | 206° |
| 2026-04-21 07:28 | 49.45649 | 2.10878 | 355 ft | 10 kts | 208° |
| 2026-04-21 07:28 | 49.45659 | 2.10789 | 352 ft | 10 kts | 303° |
| 2026-04-21 07:29 | 49.45700 | 2.10693 | 354 ft | 14 kts | 303° |
| 2026-04-21 07:29 | 49.45776 | 2.10516 | 356 ft | 19 kts | 304° |
| 2026-04-21 07:29 | 49.45841 | 2.10449 | 362 ft | 10 kts | 301° |
| 2026-04-21 07:29 | 49.45816 | 2.10429 | 359 ft | 7 kts | 124° |
| 2026-04-21 07:30 | 49.45710 | 2.10675 | 362 ft | 63 kts | 123° |
| 2026-04-21 07:30 | 49.45342 | 2.11545 | 333 ft | 127 kts | 123° |
| 2026-04-21 07:30 | 49.44764 | 2.12871 | 419 ft | 164 kts | 123° |
| 2026-04-21 07:30 | 49.44237 | 2.14428 | 1014 ft | 166 kts | 104° |
| 2026-04-21 07:31 | 49.44058 | 2.16189 | 1621 ft | 169 kts | 92° |
| 2026-04-21 07:31 | 49.44024 | 2.18091 | 1932 ft | 188 kts | 85° |
| 2026-04-21 07:31 | 49.44109 | 2.20168 | 2265 ft | 200 kts | 84° |
| 2026-04-21 07:31 | 49.44204 | 2.22386 | 2764 ft | 217 kts | 84° |
| 2026-04-21 07:32 | 49.44310 | 2.24807 | 3281 ft | 237 kts | 84° |
| 2026-04-21 07:32 | 49.44419 | 2.27385 | 3791 ft | 245 kts | 86° |
| 2026-04-21 07:32 | 49.44146 | 2.29993 | 4452 ft | 255 kts | 110° |
| 2026-04-21 07:32 | 49.43344 | 2.32447 | 5376 ft | 259 kts | 115° |
| 2026-04-21 07:33 | 49.42492 | 2.34905 | 6266 ft | 263 kts | 116° |
| 2026-04-21 07:33 | 49.41602 | 2.37439 | 7136 ft | 268 kts | 116° |
| 2026-04-21 07:33 | 49.40708 | 2.39975 | 7984 ft | 273 kts | 116° |
| 2026-04-21 07:33 | 49.39800 | 2.42562 | 8793 ft | 277 kts | 116° |
| 2026-04-21 07:34 | 49.38879 | 2.45189 | 9583 ft | 282 kts | 116° |
| 2026-04-21 07:34 | 49.37945 | 2.47847 | 10331 ft | 288 kts | 116° |
| 2026-04-21 07:34 | 49.37301 | 2.49677 | 10586 ft | 302 kts | 116° |
| 2026-04-21 07:34 | 49.36264 | 2.52619 | 10825 ft | 325 kts | 116° |
| 2026-04-21 07:35 | 49.34777 | 2.56827 | 11449 ft | 342 kts | 116° |
| 2026-04-21 07:35 | 49.34022 | 2.58958 | 11875 ft | 346 kts | 116° |
| 2026-04-21 07:35 | 49.32866 | 2.62220 | 12505 ft | 352 kts | 116° |
| 2026-04-21 07:35 | 49.31690 | 2.65537 | 13167 ft | 356 kts | 116° |
| 2026-04-21 07:36 | 49.30500 | 2.68893 | 13804 ft | 361 kts | 117° |
| 2026-04-21 07:36 | 49.29313 | 2.72242 | 14435 ft | 365 kts | 117° |
| 2026-04-21 07:36 | 49.28096 | 2.75672 | 15061 ft | 370 kts | 117° |
| 2026-04-21 07:36 | 49.26853 | 2.79164 | 15650 ft | 374 kts | 117° |
| 2026-04-21 07:37 | 49.25583 | 2.82720 | 16233 ft | 378 kts | 117° |
| 2026-04-21 07:37 | 49.24313 | 2.86273 | 16815 ft | 382 kts | 117° |
| 2026-04-21 07:37 | 49.23029 | 2.89867 | 17376 ft | 387 kts | 118° |
| 2026-04-21 07:37 | 49.21731 | 2.93490 | 17954 ft | 390 kts | 118° |
| 2026-04-21 07:38 | 49.20419 | 2.97151 | 18519 ft | 394 kts | 118° |
| 2026-04-21 07:38 | 49.19094 | 3.00841 | 19062 ft | 399 kts | 118° |
| 2026-04-21 07:38 | 49.17747 | 3.04581 | 19615 ft | 403 kts | 118° |
| 2026-04-21 07:38 | 49.16386 | 3.08356 | 20156 ft | 408 kts | 118° |
| 2026-04-21 07:39 | 49.15009 | 3.12167 | 20684 ft | 413 kts | 118° |
| 2026-04-21 07:39 | 49.13613 | 3.16023 | 21207 ft | 416 kts | 118° |
| 2026-04-21 07:39 | 49.12206 | 3.19912 | 21715 ft | 421 kts | 118° |
| 2026-04-21 07:39 | 49.10787 | 3.23831 | 22215 ft | 424 kts | 118° |
| 2026-04-21 07:40 | 49.09347 | 3.27800 | 22686 ft | 429 kts | 118° |
| 2026-04-21 07:40 | 49.07898 | 3.31790 | 23141 ft | 433 kts | 118° |
| 2026-04-21 07:40 | 49.06433 | 3.35828 | 23584 ft | 437 kts | 118° |
| 2026-04-21 07:40 | 49.04955 | 3.39892 | 24024 ft | 441 kts | 118° |
| 2026-04-21 07:41 | 49.03458 | 3.43993 | 24442 ft | 445 kts | 118° |
| 2026-04-21 07:41 | 49.01943 | 3.48131 | 24844 ft | 449 kts | 118° |
| 2026-04-21 07:41 | 49.00416 | 3.52296 | 25237 ft | 453 kts | 118° |
| 2026-04-21 07:41 | 48.98873 | 3.56492 | 25606 ft | 457 kts | 119° |
| 2026-04-21 07:42 | 48.97315 | 3.60727 | 25984 ft | 460 kts | 118° |
| 2026-04-21 07:42 | 48.95745 | 3.64996 | 26346 ft | 464 kts | 119° |
| 2026-04-21 07:42 | 48.94163 | 3.69300 | 26688 ft | 468 kts | 119° |
| 2026-04-21 07:42 | 48.92570 | 3.73630 | 27029 ft | 471 kts | 119° |
| 2026-04-21 07:43 | 48.90960 | 3.77993 | 27356 ft | 475 kts | 119° |
| 2026-04-21 07:43 | 48.89331 | 3.82390 | 27688 ft | 479 kts | 119° |
| 2026-04-21 07:43 | 48.87693 | 3.86800 | 28026 ft | 482 kts | 119° |
| 2026-04-21 07:43 | 48.86015 | 3.91314 | 28338 ft | 485 kts | 119° |
| 2026-04-21 07:44 | 48.84349 | 3.95788 | 28658 ft | 489 kts | 119° |
| 2026-04-21 07:44 | 48.82670 | 4.00294 | 28962 ft | 492 kts | 120° |
| 2026-04-21 07:44 | 48.80979 | 4.04821 | 29278 ft | 494 kts | 120° |
| 2026-04-21 07:44 | 48.79276 | 4.09372 | 29613 ft | 497 kts | 120° |
| 2026-04-21 07:45 | 48.77562 | 4.13926 | 29915 ft | 500 kts | 121° |
| 2026-04-21 07:45 | 48.75621 | 4.18307 | 30207 ft | 502 kts | 126° |
| 2026-04-21 07:45 | 48.73590 | 4.22625 | 30509 ft | 505 kts | 126° |
| 2026-04-21 07:45 | 48.71548 | 4.26965 | 30814 ft | 507 kts | 126° |
| 2026-04-21 07:46 | 48.69503 | 4.31322 | 31168 ft | 507 kts | 126° |
| 2026-04-21 07:46 | 48.67465 | 4.35671 | 31590 ft | 506 kts | 126° |
| 2026-04-21 07:46 | 48.65429 | 4.40006 | 31997 ft | 505 kts | 126° |
| 2026-04-21 07:46 | 48.63392 | 4.44326 | 32413 ft | 504 kts | 126° |
| 2026-04-21 07:47 | 48.61351 | 4.48641 | 32815 ft | 504 kts | 126° |
| 2026-04-21 07:47 | 48.59310 | 4.52952 | 33203 ft | 503 kts | 126° |
| 2026-04-21 07:47 | 48.57276 | 4.57241 | 33610 ft | 502 kts | 126° |
| 2026-04-21 07:47 | 48.55239 | 4.61526 | 34013 ft | 501 kts | 126° |
| 2026-04-21 07:48 | 48.53206 | 4.65796 | 34407 ft | 500 kts | 126° |
| 2026-04-21 07:48 | 48.51180 | 4.70049 | 34789 ft | 500 kts | 126° |
| 2026-04-21 07:48 | 48.49153 | 4.74301 | 35160 ft | 499 kts | 126° |
| 2026-04-21 07:48 | 48.47129 | 4.78541 | 35530 ft | 497 kts | 126° |
| 2026-04-21 07:49 | 48.45110 | 4.82761 | 35896 ft | 496 kts | 127° |
| 2026-04-21 07:49 | 48.43089 | 4.86970 | 36234 ft | 495 kts | 127° |
| 2026-04-21 07:49 | 48.41070 | 4.91167 | 36564 ft | 494 kts | 127° |
| 2026-04-21 07:49 | 48.39056 | 4.95352 | 36894 ft | 493 kts | 126° |
| 2026-04-21 07:50 | 48.37057 | 4.99510 | 37100 ft | 490 kts | 126° |
| 2026-04-21 07:50 | 48.35060 | 5.03651 | 37130 ft | 489 kts | 127° |
| 2026-04-21 07:50 | 48.31137 | 5.12011 | 37120 ft | 489 kts | 120° |
| 2026-04-21 07:51 | 48.28517 | 5.21444 | 37095 ft | 487 kts | 102° |
| 2026-04-21 07:51 | 48.27042 | 5.31368 | 37091 ft | 488 kts | 100° |
| 2026-04-21 07:52 | 48.25554 | 5.41323 | 37092 ft | 489 kts | 101° |
| 2026-04-21 07:52 | 48.24057 | 5.51288 | 37085 ft | 490 kts | 101° |
| 2026-04-21 07:53 | 48.22552 | 5.61238 | 37086 ft | 490 kts | 101° |
| 2026-04-21 07:53 | 48.21036 | 5.71211 | 37093 ft | 491 kts | 101° |
| 2026-04-21 07:54 | 48.19515 | 5.81192 | 37101 ft | 492 kts | 101° |
| 2026-04-21 07:54 | 48.17976 | 5.91183 | 37105 ft | 492 kts | 101° |
| 2026-04-21 07:55 | 48.16420 | 6.01177 | 37114 ft | 493 kts | 101° |
| 2026-04-21 07:55 | 48.14865 | 6.11183 | 37125 ft | 493 kts | 101° |
| 2026-04-21 07:56 | 48.13302 | 6.21179 | 37135 ft | 494 kts | 101° |
| 2026-04-21 07:56 | 48.11731 | 6.31173 | 37142 ft | 493 kts | 101° |
| 2026-04-21 07:57 | 48.10148 | 6.41165 | 37142 ft | 493 kts | 101° |
| 2026-04-21 07:57 | 48.08554 | 6.51138 | 37147 ft | 493 kts | 101° |
| 2026-04-21 07:58 | 48.06955 | 6.61084 | 37147 ft | 492 kts | 101° |
| 2026-04-21 07:58 | 48.05350 | 6.71020 | 37146 ft | 491 kts | 101° |
| 2026-04-21 07:59 | 48.03729 | 6.81000 | 37146 ft | 491 kts | 102° |
| 2026-04-21 07:59 | 48.02109 | 6.90904 | 37149 ft | 490 kts | 102° |
| 2026-04-21 08:00 | 48.00486 | 7.00769 | 37149 ft | 489 kts | 102° |
| 2026-04-21 08:00 | 47.98853 | 7.10642 | 37149 ft | 490 kts | 102° |
| 2026-04-21 08:01 | 47.97214 | 7.20513 | 37139 ft | 490 kts | 102° |
| 2026-04-21 08:02 | 47.94727 | 7.35318 | 37138 ft | 491 kts | 102° |
| 2026-04-21 08:02 | 47.93067 | 7.45182 | 37138 ft | 491 kts | 102° |
| 2026-04-21 08:03 | 47.91392 | 7.55045 | 37137 ft | 491 kts | 102° |
| 2026-04-21 08:03 | 47.89231 | 7.64706 | 37139 ft | 492 kts | 109° |
| 2026-04-21 08:04 | 47.86817 | 7.74255 | 37145 ft | 493 kts | 109° |
| 2026-04-21 08:04 | 47.84396 | 7.83797 | 37153 ft | 492 kts | 110° |
| 2026-04-21 08:05 | 47.81962 | 7.93328 | 37153 ft | 492 kts | 110° |
| 2026-04-21 08:05 | 47.79523 | 8.02841 | 37152 ft | 492 kts | 110° |
| 2026-04-21 08:06 | 47.77070 | 8.12416 | 37156 ft | 492 kts | 110° |
| 2026-04-21 08:06 | 47.74618 | 8.21922 | 37158 ft | 492 kts | 110° |
| 2026-04-21 08:07 | 47.72156 | 8.31410 | 37158 ft | 492 kts | 110° |
| 2026-04-21 08:07 | 47.70102 | 8.39286 | 37153 ft | 492 kts | 110° |
| 2026-04-21 08:08 | 47.67682 | 8.48792 | 37154 ft | 492 kts | 108° |
| 2026-04-21 08:08 | 47.65598 | 8.58439 | 37150 ft | 490 kts | 99° |
| 2026-04-21 08:08 | 47.65288 | 8.63430 | 37151 ft | 484 kts | 85° |
| 2026-04-21 08:09 | 47.65412 | 8.68401 | 37147 ft | 483 kts | 84° |
| 2026-04-21 08:09 | 47.65700 | 8.78360 | 37142 ft | 483 kts | 84° |
| 2026-04-21 08:10 | 47.65987 | 8.88328 | 37140 ft | 484 kts | 84° |
| 2026-04-21 08:10 | 47.66253 | 8.98303 | 37140 ft | 484 kts | 85° |
| 2026-04-21 08:11 | 47.66507 | 9.08350 | 37144 ft | 484 kts | 85° |
| 2026-04-21 08:11 | 47.66753 | 9.18313 | 37147 ft | 483 kts | 85° |
| 2026-04-21 08:12 | 47.66993 | 9.28271 | 37151 ft | 483 kts | 85° |
| 2026-04-21 08:12 | 47.67220 | 9.38232 | 37155 ft | 483 kts | 85° |
| 2026-04-21 08:13 | 47.67649 | 9.48149 | 37155 ft | 481 kts | 81° |
| 2026-04-21 08:13 | 47.68491 | 9.57966 | 37156 ft | 480 kts | 79° |
| 2026-04-21 08:14 | 47.69380 | 9.67783 | 37155 ft | 480 kts | 80° |
| 2026-04-21 08:14 | 47.70154 | 9.77629 | 37152 ft | 480 kts | 81° |
| 2026-04-21 08:15 | 47.70859 | 9.87478 | 37156 ft | 480 kts | 81° |
| 2026-04-21 08:15 | 47.71563 | 9.97331 | 37151 ft | 480 kts | 81° |
| 2026-04-21 08:16 | 47.72276 | 10.07181 | 37156 ft | 479 kts | 81° |
| 2026-04-21 08:16 | 47.72989 | 10.17013 | 37153 ft | 479 kts | 81° |
| 2026-04-21 08:17 | 47.73689 | 10.26858 | 37155 ft | 479 kts | 81° |
| 2026-04-21 08:17 | 47.74370 | 10.36700 | 37149 ft | 479 kts | 81° |
| 2026-04-21 08:18 | 47.75054 | 10.46552 | 37146 ft | 479 kts | 81° |
| 2026-04-21 08:18 | 47.75738 | 10.56480 | 37140 ft | 480 kts | 81° |
| 2026-04-21 08:19 | 47.76404 | 10.66346 | 37136 ft | 480 kts | 82° |
| 2026-04-21 08:19 | 47.77051 | 10.76213 | 37131 ft | 481 kts | 82° |
| 2026-04-21 08:20 | 47.77695 | 10.86096 | 37127 ft | 481 kts | 82° |
| 2026-04-21 08:20 | 47.78340 | 10.95987 | 37126 ft | 481 kts | 82° |
| 2026-04-21 08:21 | 47.78974 | 11.05883 | 37127 ft | 481 kts | 82° |
| 2026-04-21 08:21 | 47.79593 | 11.15787 | 37133 ft | 481 kts | 82° |
| 2026-04-21 08:22 | 47.80205 | 11.25704 | 37135 ft | 481 kts | 82° |
| 2026-04-21 08:22 | 47.80813 | 11.35610 | 37142 ft | 481 kts | 82° |
| 2026-04-21 08:23 | 47.81415 | 11.45520 | 37150 ft | 481 kts | 82° |
| 2026-04-21 08:23 | 47.82001 | 11.55419 | 37153 ft | 480 kts | 82° |
| 2026-04-21 08:24 | 47.82585 | 11.65393 | 37155 ft | 480 kts | 83° |
| 2026-04-21 08:24 | 47.83154 | 11.75288 | 37155 ft | 480 kts | 83° |
| 2026-04-21 08:25 | 47.83716 | 11.85194 | 37157 ft | 480 kts | 83° |
| 2026-04-21 08:25 | 47.84269 | 11.95088 | 37162 ft | 479 kts | 83° |
| 2026-04-21 08:26 | 47.84819 | 12.05041 | 37165 ft | 479 kts | 83° |
| 2026-04-21 08:26 | 47.85359 | 12.14931 | 37167 ft | 479 kts | 83° |
| 2026-04-21 08:27 | 47.85887 | 12.24821 | 37159 ft | 479 kts | 83° |
| 2026-04-21 08:27 | 47.86398 | 12.34718 | 37165 ft | 480 kts | 83° |
| 2026-04-21 08:28 | 47.86907 | 12.44621 | 37158 ft | 480 kts | 83° |
| 2026-04-21 08:28 | 47.87413 | 12.54535 | 37157 ft | 480 kts | 83° |
| 2026-04-21 08:29 | 47.87897 | 12.64459 | 37157 ft | 480 kts | 84° |
| 2026-04-21 08:29 | 47.88356 | 12.74378 | 37157 ft | 480 kts | 84° |
| 2026-04-21 08:30 | 47.88802 | 12.84294 | 37156 ft | 480 kts | 84° |
| 2026-04-21 08:30 | 47.89245 | 12.94214 | 37154 ft | 480 kts | 84° |
| 2026-04-21 08:31 | 47.89697 | 13.04133 | 36999 ft | 480 kts | 83° |
| 2026-04-21 08:31 | 47.89932 | 13.09092 | 36737 ft | 479 kts | 83° |
| 2026-04-21 08:31 | 47.90169 | 13.14038 | 36434 ft | 479 kts | 83° |
| 2026-04-21 08:31 | 47.90406 | 13.18984 | 36135 ft | 480 kts | 83° |
| 2026-04-21 08:32 | 47.90642 | 13.23965 | 35834 ft | 483 kts | 83° |
| 2026-04-21 08:32 | 47.90877 | 13.28974 | 35536 ft | 486 kts | 84° |
| 2026-04-21 08:32 | 47.91112 | 13.34010 | 35238 ft | 487 kts | 84° |
| 2026-04-21 08:32 | 47.91341 | 13.39050 | 34939 ft | 488 kts | 84° |
| 2026-04-21 08:33 | 47.91565 | 13.44099 | 34639 ft | 489 kts | 84° |
| 2026-04-21 08:33 | 47.91786 | 13.49221 | 34336 ft | 489 kts | 85° |
| 2026-04-21 08:33 | 47.91927 | 13.54288 | 34036 ft | 489 kts | 87° |
| 2026-04-21 08:33 | 47.91954 | 13.59362 | 33736 ft | 489 kts | 89° |
| 2026-04-21 08:34 | 47.91901 | 13.64414 | 33436 ft | 487 kts | 90° |
| 2026-04-21 08:34 | 47.91812 | 13.69457 | 33134 ft | 484 kts | 90° |
| 2026-04-21 08:34 | 47.91723 | 13.74451 | 32834 ft | 481 kts | 90° |
| 2026-04-21 08:34 | 47.91654 | 13.79411 | 32532 ft | 477 kts | 89° |
| 2026-04-21 08:35 | 47.91609 | 13.84344 | 32232 ft | 474 kts | 89° |
| 2026-04-21 08:35 | 47.91579 | 13.89231 | 31929 ft | 471 kts | 89° |
| 2026-04-21 08:35 | 47.91557 | 13.94097 | 31631 ft | 468 kts | 89° |
| 2026-04-21 08:35 | 47.91533 | 13.98932 | 31332 ft | 464 kts | 89° |
| 2026-04-21 08:36 | 47.91504 | 14.03726 | 31032 ft | 461 kts | 89° |
| 2026-04-21 08:36 | 47.91467 | 14.08496 | 30722 ft | 459 kts | 89° |
| 2026-04-21 08:36 | 47.91425 | 14.13229 | 30424 ft | 456 kts | 89° |
| 2026-04-21 08:36 | 47.91380 | 14.17942 | 30123 ft | 453 kts | 89° |
| 2026-04-21 08:37 | 47.91334 | 14.22631 | 29821 ft | 451 kts | 89° |
| 2026-04-21 08:37 | 47.91288 | 14.27292 | 29387 ft | 450 kts | 89° |
| 2026-04-21 08:37 | 47.91240 | 14.31947 | 28775 ft | 449 kts | 89° |
| 2026-04-21 08:37 | 47.91189 | 14.36594 | 28153 ft | 448 kts | 89° |
| 2026-04-21 08:38 | 47.91137 | 14.41234 | 27537 ft | 447 kts | 89° |
| 2026-04-21 08:38 | 47.91083 | 14.45856 | 26910 ft | 445 kts | 89° |
| 2026-04-21 08:38 | 47.91028 | 14.50458 | 26282 ft | 443 kts | 89° |
| 2026-04-21 08:38 | 47.90974 | 14.55044 | 25657 ft | 441 kts | 89° |
| 2026-04-21 08:39 | 47.90938 | 14.58121 | 25235 ft | 440 kts | 89° |
| 2026-04-21 08:39 | 47.90883 | 14.62666 | 24608 ft | 437 kts | 89° |
| 2026-04-21 08:39 | 47.90824 | 14.67195 | 23980 ft | 440 kts | 89° |
| 2026-04-21 08:39 | 47.90760 | 14.71847 | 23351 ft | 453 kts | 89° |
| 2026-04-21 08:40 | 47.90692 | 14.76538 | 22722 ft | 452 kts | 89° |
| 2026-04-21 08:40 | 47.90625 | 14.81209 | 22095 ft | 449 kts | 89° |
| 2026-04-21 08:40 | 47.90558 | 14.85837 | 21470 ft | 444 kts | 89° |
| 2026-04-21 08:40 | 47.90490 | 14.90408 | 20846 ft | 440 kts | 89° |
| 2026-04-21 08:41 | 47.90418 | 14.94947 | 20220 ft | 435 kts | 89° |
| 2026-04-21 08:41 | 47.90344 | 14.99428 | 19600 ft | 430 kts | 89° |
| 2026-04-21 08:41 | 47.90269 | 15.03848 | 19189 ft | 426 kts | 89° |
| 2026-04-21 08:41 | 47.90191 | 15.08257 | 18810 ft | 423 kts | 89° |
| 2026-04-21 08:42 | 47.90113 | 15.12618 | 18433 ft | 420 kts | 89° |
| 2026-04-21 08:42 | 47.90036 | 15.16952 | 18059 ft | 417 kts | 89° |
| 2026-04-21 08:42 | 47.89958 | 15.21249 | 17683 ft | 413 kts | 89° |
| 2026-04-21 08:42 | 47.89878 | 15.25519 | 17305 ft | 411 kts | 89° |
| 2026-04-21 08:43 | 47.89794 | 15.29747 | 16930 ft | 408 kts | 89° |
| 2026-04-21 08:43 | 47.89563 | 15.33949 | 16548 ft | 407 kts | 99° |
| 2026-04-21 08:43 | 47.88994 | 15.38074 | 16172 ft | 406 kts | 100° |
| 2026-04-21 08:43 | 47.88419 | 15.42199 | 15798 ft | 407 kts | 100° |
| 2026-04-21 08:44 | 47.87835 | 15.46369 | 15419 ft | 405 kts | 100° |
| 2026-04-21 08:44 | 47.87256 | 15.50467 | 15047 ft | 403 kts | 100° |
| 2026-04-21 08:44 | 47.86686 | 15.54476 | 14671 ft | 400 kts | 100° |
| 2026-04-21 08:44 | 47.86106 | 15.58566 | 14288 ft | 397 kts | 101° |
| 2026-04-21 08:45 | 47.85537 | 15.62576 | 13911 ft | 395 kts | 100° |
| 2026-04-21 08:45 | 47.84969 | 15.66564 | 13535 ft | 392 kts | 101° |
| 2026-04-21 08:45 | 47.84402 | 15.70520 | 13183 ft | 389 kts | 101° |
| 2026-04-21 08:45 | 47.83834 | 15.74459 | 13083 ft | 388 kts | 101° |
| 2026-04-21 08:46 | 47.83266 | 15.78389 | 13109 ft | 389 kts | 101° |
| 2026-04-21 08:46 | 47.82697 | 15.82327 | 13107 ft | 389 kts | 101° |
| 2026-04-21 08:46 | 47.82126 | 15.86259 | 13110 ft | 389 kts | 101° |
| 2026-04-21 08:46 | 47.81554 | 15.90189 | 13109 ft | 389 kts | 101° |
| 2026-04-21 08:47 | 47.80984 | 15.94116 | 13054 ft | 389 kts | 101° |
| 2026-04-21 08:47 | 47.80412 | 15.98045 | 12730 ft | 387 kts | 101° |
| 2026-04-21 08:47 | 47.79846 | 16.01932 | 12380 ft | 384 kts | 101° |
| 2026-04-21 08:47 | 47.79282 | 16.05800 | 12030 ft | 382 kts | 101° |
| 2026-04-21 08:48 | 47.78717 | 16.09640 | 11678 ft | 381 kts | 101° |
| 2026-04-21 08:48 | 47.78147 | 16.13482 | 11329 ft | 380 kts | 101° |
| 2026-04-21 08:48 | 47.77576 | 16.17323 | 10973 ft | 380 kts | 101° |
| 2026-04-21 08:48 | 47.77051 | 16.21175 | 10622 ft | 379 kts | 95° |
| 2026-04-21 08:49 | 47.77056 | 16.25064 | 10271 ft | 376 kts | 80° |
| 2026-04-21 08:49 | 47.77638 | 16.28834 | 9917 ft | 374 kts | 72° |
| 2026-04-21 08:49 | 47.78308 | 16.32565 | 9568 ft | 373 kts | 72° |
| 2026-04-21 08:49 | 47.78965 | 16.36220 | 9211 ft | 356 kts | 72° |
| 2026-04-21 08:50 | 47.79578 | 16.39662 | 8860 ft | 332 kts | 72° |
| 2026-04-21 08:50 | 47.80154 | 16.42924 | 8506 ft | 313 kts | 72° |
| 2026-04-21 08:50 | 47.80690 | 16.45970 | 8157 ft | 297 kts | 72° |
| 2026-04-21 08:50 | 47.81210 | 16.48895 | 7681 ft | 289 kts | 72° |
| 2026-04-21 08:51 | 47.81722 | 16.51759 | 7180 ft | 284 kts | 71° |
| 2026-04-21 08:51 | 47.82225 | 16.54577 | 6680 ft | 280 kts | 72° |
| 2026-04-21 08:51 | 47.82718 | 16.57363 | 6179 ft | 276 kts | 72° |
| 2026-04-21 08:51 | 47.83203 | 16.60111 | 5674 ft | 274 kts | 71° |
| 2026-04-21 08:52 | 47.83685 | 16.62836 | 5176 ft | 270 kts | 71° |
| 2026-04-21 08:52 | 47.84237 | 16.65452 | 4763 ft | 257 kts | 58° |
| 2026-04-21 08:52 | 47.85367 | 16.67298 | 4593 ft | 230 kts | 27° |
| 2026-04-21 08:52 | 47.86781 | 16.68043 | 4466 ft | 206 kts | 2° |
| 2026-04-21 08:53 | 47.88128 | 16.67856 | 4335 ft | 187 kts | 342° |
| 2026-04-21 08:53 | 47.89351 | 16.67341 | 4244 ft | 177 kts | 343° |
| 2026-04-21 08:53 | 47.90498 | 16.66861 | 4166 ft | 164 kts | 343° |
| 2026-04-21 08:53 | 47.91569 | 16.66412 | 4024 ft | 156 kts | 343° |
| 2026-04-21 08:54 | 47.92591 | 16.65983 | 3847 ft | 150 kts | 343° |
| 2026-04-21 08:54 | 47.93580 | 16.65568 | 3669 ft | 145 kts | 343° |
| 2026-04-21 08:54 | 47.94543 | 16.65164 | 3481 ft | 142 kts | 343° |
| 2026-04-21 08:54 | 47.95480 | 16.64771 | 3302 ft | 139 kts | 343° |
| 2026-04-21 08:55 | 47.96389 | 16.64389 | 3134 ft | 131 kts | 343° |
| 2026-04-21 08:55 | 47.97266 | 16.64020 | 2955 ft | 130 kts | 343° |
| 2026-04-21 08:55 | 47.98134 | 16.63655 | 2780 ft | 129 kts | 343° |
| 2026-04-21 08:55 | 47.98996 | 16.63293 | 2605 ft | 129 kts | 343° |
| 2026-04-21 08:56 | 47.99867 | 16.62926 | 2430 ft | 128 kts | 343° |
| 2026-04-21 08:56 | 48.00710 | 16.62572 | 2263 ft | 128 kts | 343° |
| 2026-04-21 08:56 | 48.01567 | 16.62211 | 2096 ft | 127 kts | 343° |
| 2026-04-21 08:56 | 48.02430 | 16.61848 | 1924 ft | 127 kts | 343° |
| 2026-04-21 08:57 | 48.03281 | 16.61489 | 1750 ft | 127 kts | 343° |
| 2026-04-21 08:57 | 48.04126 | 16.61133 | 1588 ft | 126 kts | 343° |
| 2026-04-21 08:57 | 48.04965 | 16.60780 | 1421 ft | 126 kts | 343° |
| 2026-04-21 08:57 | 48.05810 | 16.60424 | 1256 ft | 126 kts | 343° |
| 2026-04-21 08:58 | 48.06656 | 16.60067 | 1084 ft | 127 kts | 343° |
| 2026-04-21 08:58 | 48.07507 | 16.59707 | 916 ft | 127 kts | 343° |
| 2026-04-21 08:58 | 48.08361 | 16.59347 | 746 ft | 128 kts | 343° |
| 2026-04-21 08:58 | 48.09210 | 16.58984 | 612 ft | 122 kts | 343° |
| 2026-04-21 08:59 | 48.09865 | 16.58701 | 609 ft | 73 kts | 347° |
| 2026-04-21 08:59 | 48.10282 | 16.58534 | 609 ft | 58 kts | 344° |
| 2026-04-21 08:59 | 48.10588 | 16.58398 | 614 ft | 36 kts | 342° |
| 2026-04-21 08:59 | 48.10763 | 16.58231 | 617 ft | 27 kts | 313° |
| 2026-04-21 09:00 | 48.10884 | 16.58046 | 614 ft | 23 kts | 314° |
| 2026-04-21 09:00 | 48.11033 | 16.57929 | 613 ft | 26 kts | 342° |
| 2026-04-21 09:00 | 48.11122 | 16.57819 | 609 ft | 16 kts | 297° |
| 2026-04-21 09:00 | 48.11178 | 16.57650 | 617 ft | 20 kts | 296° |
| 2026-04-21 09:01 | 48.11243 | 16.57452 | 621 ft | 23 kts | 296° |
| 2026-04-21 09:01 | 48.11317 | 16.57227 | 617 ft | 26 kts | 296° |
| 2026-04-21 09:01 | 48.11380 | 16.57032 | 613 ft | 19 kts | 296° |
| 2026-04-21 09:01 | 48.11438 | 16.56856 | 621 ft | 17 kts | 296° |
| 2026-04-21 09:02 | 48.11494 | 16.56683 | 617 ft | 15 kts | 296° |
| 2026-04-21 09:02 | 48.11531 | 16.56570 | 617 ft | 14 kts | 296° |
| 2026-04-21 09:02 | 48.11578 | 16.56427 | 617 ft | 14 kts | 299° |
| 2026-04-21 09:03 | 48.11681 | 16.56103 | 623 ft | 20 kts | 295° |
| 2026-04-21 09:03 | 48.11738 | 16.55926 | 620 ft | 15 kts | 297° |
| 2026-04-21 09:03 | 48.11792 | 16.55774 | 617 ft | 11 kts | 297° |
| 2026-04-21 09:03 | 48.11829 | 16.55665 | 622 ft | 8 kts | 303° |
| 2026-04-21 09:04 | 48.11875 | 16.55681 | 618 ft | 9 kts | 28° |
| 2026-04-21 09:04 | 48.11907 | 16.55704 | 609 ft | 0 kts | 25° |